sensor_id;sensor_type;location;lat;lon;timestamp;temperature;humidity
66708;DHT22;53622;0.000;0.000;2023-05-07T00:00:22;23.70;55.20
66708;DHT22;53622;0.000;0.000;2023-05-07T00:02:53;23.70;55.20
66708;DHT22;53622;0.000;0.000;2023-05-07T00:05:22;23.70;55.20
66708;DHT22;53622;0.000;0.000;2023-05-07T00:07:52;23.70;55.20
66708;DHT22;53622;0.000;0.000;2023-05-07T00:10:21;23.70;55.20
66708;DHT22;53622;0.000;0.000;2023-05-07T00:12:51;23.70;55.20
66708;DHT22;53622;0.000;0.000;2023-05-07T00:15:20;23.70;55.10
66708;DHT22;53622;0.000;0.000;2023-05-07T00:17:49;23.70;55.20
66708;DHT22;53622;0.000;0.000;2023-05-07T00:20:20;23.70;55.10
66708;DHT22;53622;0.000;0.000;2023-05-07T00:22:49;23.70;55.10
66708;DHT22;53622;0.000;0.000;2023-05-07T00:25:18;23.70;55.10
66708;DHT22;53622;0.000;0.000;2023-05-07T00:27:48;23.70;55.10
66708;DHT22;53622;0.000;0.000;2023-05-07T00:30:17;23.70;55.10
66708;DHT22;53622;0.000;0.000;2023-05-07T00:32:46;23.70;55.10
66708;DHT22;53622;0.000;0.000;2023-05-07T00:35:16;23.70;55.10
66708;DHT22;53622;0.000;0.000;2023-05-07T00:37:47;23.70;55.10
66708;DHT22;53622;0.000;0.000;2023-05-07T00:40:17;23.70;55.10
66708;DHT22;53622;0.000;0.000;2023-05-07T00:42:47;23.70;55.10
66708;DHT22;53622;0.000;0.000;2023-05-07T00:45:16;23.70;55.00
66708;DHT22;53622;0.000;0.000;2023-05-07T00:47:46;23.70;55.10
66708;DHT22;53622;0.000;0.000;2023-05-07T00:50:15;23.60;55.00
66708;DHT22;53622;0.000;0.000;2023-05-07T00:52:45;23.60;55.00
66708;DHT22;53622;0.000;0.000;2023-05-07T00:55:15;23.70;55.00
66708;DHT22;53622;0.000;0.000;2023-05-07T00:57:45;23.60;55.00
66708;DHT22;53622;0.000;0.000;2023-05-07T01:00:16;23.60;54.90
66708;DHT22;53622;0.000;0.000;2023-05-07T01:02:45;23.60;54.90
66708;DHT22;53622;0.000;0.000;2023-05-07T01:05:17;23.60;54.80
66708;DHT22;53622;0.000;0.000;2023-05-07T01:07:48;23.60;54.80
66708;DHT22;53622;0.000;0.000;2023-05-07T01:10:20;23.60;54.80
66708;DHT22;53622;0.000;0.000;2023-05-07T01:12:50;23.60;54.80
66708;DHT22;53622;0.000;0.000;2023-05-07T01:15:20;23.60;54.80
66708;DHT22;53622;0.000;0.000;2023-05-07T01:17:49;23.60;54.80
66708;DHT22;53622;0.000;0.000;2023-05-07T01:20:25;23.60;54.80
66708;DHT22;53622;0.000;0.000;2023-05-07T01:22:58;23.60;54.70
66708;DHT22;53622;0.000;0.000;2023-05-07T01:25:29;23.60;54.70
66708;DHT22;53622;0.000;0.000;2023-05-07T01:28:00;23.60;54.70
66708;DHT22;53622;0.000;0.000;2023-05-07T01:30:35;23.60;54.80
66708;DHT22;53622;0.000;0.000;2023-05-07T01:33:09;23.60;54.80
66708;DHT22;53622;0.000;0.000;2023-05-07T01:35:43;23.60;54.80
66708;DHT22;53622;0.000;0.000;2023-05-07T01:38:14;23.60;54.80
66708;DHT22;53622;0.000;0.000;2023-05-07T01:40:44;23.60;54.90
66708;DHT22;53622;0.000;0.000;2023-05-07T01:43:14;23.60;54.80
66708;DHT22;53622;0.000;0.000;2023-05-07T01:45:44;23.60;54.90
66708;DHT22;53622;0.000;0.000;2023-05-07T01:48:14;23.60;54.90
66708;DHT22;53622;0.000;0.000;2023-05-07T01:50:44;23.60;54.90
66708;DHT22;53622;0.000;0.000;2023-05-07T01:53:15;23.60;54.90
66708;DHT22;53622;0.000;0.000;2023-05-07T01:55:44;23.60;54.90
66708;DHT22;53622;0.000;0.000;2023-05-07T01:58:15;23.60;54.90
66708;DHT22;53622;0.000;0.000;2023-05-07T02:00:44;23.60;54.90
66708;DHT22;53622;0.000;0.000;2023-05-07T02:03:13;23.60;54.90
66708;DHT22;53622;0.000;0.000;2023-05-07T02:05:52;23.60;54.90
66708;DHT22;53622;0.000;0.000;2023-05-07T02:08:33;23.60;54.90
66708;DHT22;53622;0.000;0.000;2023-05-07T02:11:02;23.50;54.90
66708;DHT22;53622;0.000;0.000;2023-05-07T02:13:33;23.60;54.90
66708;DHT22;53622;0.000;0.000;2023-05-07T02:16:04;23.60;54.90
66708;DHT22;53622;0.000;0.000;2023-05-07T02:18:33;23.50;54.80
66708;DHT22;53622;0.000;0.000;2023-05-07T02:21:03;23.50;54.90
66708;DHT22;53622;0.000;0.000;2023-05-07T02:23:34;23.60;54.90
66708;DHT22;53622;0.000;0.000;2023-05-07T02:26:04;23.50;54.90
66708;DHT22;53622;0.000;0.000;2023-05-07T02:28:33;23.50;54.90
66708;DHT22;53622;0.000;0.000;2023-05-07T02:31:05;23.50;54.80
66708;DHT22;53622;0.000;0.000;2023-05-07T02:33:35;23.50;54.90
66708;DHT22;53622;0.000;0.000;2023-05-07T02:36:07;23.50;54.80
66708;DHT22;53622;0.000;0.000;2023-05-07T02:38:45;23.50;55.40
66708;DHT22;53622;0.000;0.000;2023-05-07T02:41:14;23.50;54.80
66708;DHT22;53622;0.000;0.000;2023-05-07T02:43:44;23.50;54.80
66708;DHT22;53622;0.000;0.000;2023-05-07T02:46:13;23.50;54.70
66708;DHT22;53622;0.000;0.000;2023-05-07T02:48:47;23.50;54.70
66708;DHT22;53622;0.000;0.000;2023-05-07T02:51:19;23.50;54.70
66708;DHT22;53622;0.000;0.000;2023-05-07T02:53:55;23.50;54.60
66708;DHT22;53622;0.000;0.000;2023-05-07T02:56:26;23.50;54.60
66708;DHT22;53622;0.000;0.000;2023-05-07T02:58:55;23.50;54.60
66708;DHT22;53622;0.000;0.000;2023-05-07T03:01:28;23.50;54.70
66708;DHT22;53622;0.000;0.000;2023-05-07T03:04:08;23.50;54.60
66708;DHT22;53622;0.000;0.000;2023-05-07T03:06:38;23.50;54.60
66708;DHT22;53622;0.000;0.000;2023-05-07T03:09:09;23.50;54.60
66708;DHT22;53622;0.000;0.000;2023-05-07T03:11:38;23.50;54.60
66708;DHT22;53622;0.000;0.000;2023-05-07T03:14:08;23.50;54.50
66708;DHT22;53622;0.000;0.000;2023-05-07T03:16:38;23.50;55.10
66708;DHT22;53622;0.000;0.000;2023-05-07T03:19:07;23.50;54.50
66708;DHT22;53622;0.000;0.000;2023-05-07T03:21:37;23.50;54.50
66708;DHT22;53622;0.000;0.000;2023-05-07T03:24:06;23.50;54.50
66708;DHT22;53622;0.000;0.000;2023-05-07T03:26:37;23.50;54.50
66708;DHT22;53622;0.000;0.000;2023-05-07T03:29:06;23.50;54.50
66708;DHT22;53622;0.000;0.000;2023-05-07T03:31:35;23.50;54.50
66708;DHT22;53622;0.000;0.000;2023-05-07T03:34:05;23.50;54.50
66708;DHT22;53622;0.000;0.000;2023-05-07T03:36:34;23.50;54.50
66708;DHT22;53622;0.000;0.000;2023-05-07T03:39:05;23.50;54.40
66708;DHT22;53622;0.000;0.000;2023-05-07T03:41:40;23.50;54.50
66708;DHT22;53622;0.000;0.000;2023-05-07T03:44:09;23.50;54.40
66708;DHT22;53622;0.000;0.000;2023-05-07T03:46:39;23.40;54.40
66708;DHT22;53622;0.000;0.000;2023-05-07T03:49:10;23.50;54.50
66708;DHT22;53622;0.000;0.000;2023-05-07T03:51:40;23.40;54.40
66708;DHT22;53622;0.000;0.000;2023-05-07T03:54:09;23.40;54.40
66708;DHT22;53622;0.000;0.000;2023-05-07T03:56:44;23.50;54.40
66708;DHT22;53622;0.000;0.000;2023-05-07T03:59:14;23.40;54.40
66708;DHT22;53622;0.000;0.000;2023-05-07T04:01:45;23.40;54.50
66708;DHT22;53622;0.000;0.000;2023-05-07T04:04:17;23.40;54.40
66708;DHT22;53622;0.000;0.000;2023-05-07T04:06:46;23.40;54.40
66708;DHT22;53622;0.000;0.000;2023-05-07T04:09:16;23.40;54.40
66708;DHT22;53622;0.000;0.000;2023-05-07T04:11:48;23.40;54.40
66708;DHT22;53622;0.000;0.000;2023-05-07T04:14:17;23.40;54.40
66708;DHT22;53622;0.000;0.000;2023-05-07T04:16:47;23.40;54.40
66708;DHT22;53622;0.000;0.000;2023-05-07T04:19:16;23.40;54.40
66708;DHT22;53622;0.000;0.000;2023-05-07T04:21:49;23.40;54.40
66708;DHT22;53622;0.000;0.000;2023-05-07T04:24:18;23.40;54.40
66708;DHT22;53622;0.000;0.000;2023-05-07T04:26:49;23.40;54.30
66708;DHT22;53622;0.000;0.000;2023-05-07T04:29:21;23.40;54.40
66708;DHT22;53622;0.000;0.000;2023-05-07T04:31:51;23.40;54.30
66708;DHT22;53622;0.000;0.000;2023-05-07T04:34:20;23.40;54.30
66708;DHT22;53622;0.000;0.000;2023-05-07T04:36:49;23.40;54.40
66708;DHT22;53622;0.000;0.000;2023-05-07T04:39:18;23.40;54.30
66708;DHT22;53622;0.000;0.000;2023-05-07T04:41:50;23.40;54.30
66708;DHT22;53622;0.000;0.000;2023-05-07T04:44:20;23.40;54.30
66708;DHT22;53622;0.000;0.000;2023-05-07T04:46:49;23.40;54.40
66708;DHT22;53622;0.000;0.000;2023-05-07T04:49:19;23.40;54.30
66708;DHT22;53622;0.000;0.000;2023-05-07T04:51:49;23.40;54.30
66708;DHT22;53622;0.000;0.000;2023-05-07T04:54:21;23.40;54.40
66708;DHT22;53622;0.000;0.000;2023-05-07T04:56:52;23.40;54.30
66708;DHT22;53622;0.000;0.000;2023-05-07T04:59:21;23.40;54.30
66708;DHT22;53622;0.000;0.000;2023-05-07T05:01:51;23.40;54.40
66708;DHT22;53622;0.000;0.000;2023-05-07T05:04:20;23.40;54.40
66708;DHT22;53622;0.000;0.000;2023-05-07T05:06:50;23.40;54.40
66708;DHT22;53622;0.000;0.000;2023-05-07T05:09:19;23.40;54.40
66708;DHT22;53622;0.000;0.000;2023-05-07T05:11:48;23.40;54.40
66708;DHT22;53622;0.000;0.000;2023-05-07T05:14:19;23.40;54.40
66708;DHT22;53622;0.000;0.000;2023-05-07T05:16:48;23.40;54.40
66708;DHT22;53622;0.000;0.000;2023-05-07T05:19:18;23.40;54.40
66708;DHT22;53622;0.000;0.000;2023-05-07T05:21:47;23.40;54.40
66708;DHT22;53622;0.000;0.000;2023-05-07T05:24:16;23.40;54.40
66708;DHT22;53622;0.000;0.000;2023-05-07T05:26:45;23.40;54.40
66708;DHT22;53622;0.000;0.000;2023-05-07T05:29:15;23.40;54.40
66708;DHT22;53622;0.000;0.000;2023-05-07T05:31:46;23.40;54.40
66708;DHT22;53622;0.000;0.000;2023-05-07T05:34:16;23.40;54.40
66708;DHT22;53622;0.000;0.000;2023-05-07T05:36:47;23.40;54.40
66708;DHT22;53622;0.000;0.000;2023-05-07T05:39:17;23.40;54.40
66708;DHT22;53622;0.000;0.000;2023-05-07T05:41:46;23.40;54.40
66708;DHT22;53622;0.000;0.000;2023-05-07T05:44:16;23.40;54.50
66708;DHT22;53622;0.000;0.000;2023-05-07T05:46:48;23.40;54.40
66708;DHT22;53622;0.000;0.000;2023-05-07T05:49:18;23.40;54.40
66708;DHT22;53622;0.000;0.000;2023-05-07T05:51:48;23.30;55.00
66708;DHT22;53622;0.000;0.000;2023-05-07T05:54:17;23.40;54.40
66708;DHT22;53622;0.000;0.000;2023-05-07T05:56:47;23.40;54.40
66708;DHT22;53622;0.000;0.000;2023-05-07T05:59:17;23.30;54.50
66708;DHT22;53622;0.000;0.000;2023-05-07T06:01:48;23.30;54.50
66708;DHT22;53622;0.000;0.000;2023-05-07T06:04:17;23.40;54.50
66708;DHT22;53622;0.000;0.000;2023-05-07T06:06:47;23.40;54.50
66708;DHT22;53622;0.000;0.000;2023-05-07T06:09:16;23.40;54.50
66708;DHT22;53622;0.000;0.000;2023-05-07T06:11:46;23.40;54.50
66708;DHT22;53622;0.000;0.000;2023-05-07T06:14:15;23.30;54.50
66708;DHT22;53622;0.000;0.000;2023-05-07T06:16:44;23.40;54.50
66708;DHT22;53622;0.000;0.000;2023-05-07T06:19:15;23.30;54.50
66708;DHT22;53622;0.000;0.000;2023-05-07T06:21:46;23.40;54.60
66708;DHT22;53622;0.000;0.000;2023-05-07T06:24:15;23.40;54.50
66708;DHT22;53622;0.000;0.000;2023-05-07T06:26:44;23.40;54.70
66708;DHT22;53622;0.000;0.000;2023-05-07T06:29:13;23.40;54.70
66708;DHT22;53622;0.000;0.000;2023-05-07T06:31:44;23.40;54.60
66708;DHT22;53622;0.000;0.000;2023-05-07T06:34:14;23.40;54.60
66708;DHT22;53622;0.000;0.000;2023-05-07T06:36:44;23.40;54.70
66708;DHT22;53622;0.000;0.000;2023-05-07T06:39:28;23.40;54.70
66708;DHT22;53622;0.000;0.000;2023-05-07T06:41:58;23.30;54.50
66708;DHT22;53622;0.000;0.000;2023-05-07T06:44:31;23.40;54.60
66708;DHT22;53622;0.000;0.000;2023-05-07T06:47:12;23.40;54.70
66708;DHT22;53622;0.000;0.000;2023-05-07T06:49:47;23.30;54.60
66708;DHT22;53622;0.000;0.000;2023-05-07T06:52:18;23.40;54.70
66708;DHT22;53622;0.000;0.000;2023-05-07T06:54:50;23.40;54.60
66708;DHT22;53622;0.000;0.000;2023-05-07T06:57:21;23.30;54.70
66708;DHT22;53622;0.000;0.000;2023-05-07T06:59:50;23.40;54.60
66708;DHT22;53622;0.000;0.000;2023-05-07T07:02:20;23.40;54.70
66708;DHT22;53622;0.000;0.000;2023-05-07T07:04:52;23.30;54.60
66708;DHT22;53622;0.000;0.000;2023-05-07T07:07:21;23.40;54.70
66708;DHT22;53622;0.000;0.000;2023-05-07T07:09:51;23.40;54.60
66708;DHT22;53622;0.000;0.000;2023-05-07T07:12:20;23.40;54.70
66708;DHT22;53622;0.000;0.000;2023-05-07T07:14:50;23.40;54.70
66708;DHT22;53622;0.000;0.000;2023-05-07T07:17:22;23.40;54.60
66708;DHT22;53622;0.000;0.000;2023-05-07T07:19:54;23.30;54.60
66708;DHT22;53622;0.000;0.000;2023-05-07T07:22:23;23.40;54.70
66708;DHT22;53622;0.000;0.000;2023-05-07T07:24:52;23.40;54.50
66708;DHT22;53622;0.000;0.000;2023-05-07T07:27:24;23.40;54.70
66708;DHT22;53622;0.000;0.000;2023-05-07T07:29:53;23.40;54.60
66708;DHT22;53622;0.000;0.000;2023-05-07T07:32:23;23.40;54.60
66708;DHT22;53622;0.000;0.000;2023-05-07T07:34:55;23.40;54.60
66708;DHT22;53622;0.000;0.000;2023-05-07T07:37:25;23.40;54.70
66708;DHT22;53622;0.000;0.000;2023-05-07T07:39:55;23.40;54.70
66708;DHT22;53622;0.000;0.000;2023-05-07T07:42:25;23.40;54.70
66708;DHT22;53622;0.000;0.000;2023-05-07T07:44:54;23.30;54.70
66708;DHT22;53622;0.000;0.000;2023-05-07T07:47:27;23.40;54.70
66708;DHT22;53622;0.000;0.000;2023-05-07T07:49:58;23.30;54.70
66708;DHT22;53622;0.000;0.000;2023-05-07T07:52:28;23.30;54.70
66708;DHT22;53622;0.000;0.000;2023-05-07T07:54:57;23.30;54.70
66708;DHT22;53622;0.000;0.000;2023-05-07T07:57:26;23.30;54.60
66708;DHT22;53622;0.000;0.000;2023-05-07T07:59:56;23.30;54.60
66708;DHT22;53622;0.000;0.000;2023-05-07T08:02:26;23.30;54.70
66708;DHT22;53622;0.000;0.000;2023-05-07T08:04:55;23.30;54.70
66708;DHT22;53622;0.000;0.000;2023-05-07T08:07:26;23.30;54.80
66708;DHT22;53622;0.000;0.000;2023-05-07T08:09:55;23.30;54.80
66708;DHT22;53622;0.000;0.000;2023-05-07T08:12:27;23.30;54.70
66708;DHT22;53622;0.000;0.000;2023-05-07T08:14:56;23.30;54.80
66708;DHT22;53622;0.000;0.000;2023-05-07T08:17:26;23.30;54.70
66708;DHT22;53622;0.000;0.000;2023-05-07T08:19:56;23.30;54.80
66708;DHT22;53622;0.000;0.000;2023-05-07T08:22:26;23.30;54.80
66708;DHT22;53622;0.000;0.000;2023-05-07T08:24:56;23.30;54.80
66708;DHT22;53622;0.000;0.000;2023-05-07T08:27:25;23.30;54.80
66708;DHT22;53622;0.000;0.000;2023-05-07T08:29:55;23.30;54.80
66708;DHT22;53622;0.000;0.000;2023-05-07T08:32:25;23.40;54.80
66708;DHT22;53622;0.000;0.000;2023-05-07T08:34:55;23.30;54.70
66708;DHT22;53622;0.000;0.000;2023-05-07T08:37:26;23.30;54.80
66708;DHT22;53622;0.000;0.000;2023-05-07T08:39:55;23.30;54.80
66708;DHT22;53622;0.000;0.000;2023-05-07T08:42:29;23.30;54.80
66708;DHT22;53622;0.000;0.000;2023-05-07T08:45:00;23.30;54.80
66708;DHT22;53622;0.000;0.000;2023-05-07T08:47:40;23.30;54.90
66708;DHT22;53622;0.000;0.000;2023-05-07T08:50:12;23.30;54.80
66708;DHT22;53622;0.000;0.000;2023-05-07T08:52:43;23.30;54.90
66708;DHT22;53622;0.000;0.000;2023-05-07T08:55:13;23.30;54.90
66708;DHT22;53622;0.000;0.000;2023-05-07T08:57:43;23.30;54.80
66708;DHT22;53622;0.000;0.000;2023-05-07T09:00:14;23.30;54.90
66708;DHT22;53622;0.000;0.000;2023-05-07T09:02:44;23.30;54.90
66708;DHT22;53622;0.000;0.000;2023-05-07T09:05:14;23.30;54.80
66708;DHT22;53622;0.000;0.000;2023-05-07T09:07:47;23.30;54.90
66708;DHT22;53622;0.000;0.000;2023-05-07T09:10:20;23.30;54.90
66708;DHT22;53622;0.000;0.000;2023-05-07T09:12:51;23.30;55.00
66708;DHT22;53622;0.000;0.000;2023-05-07T09:15:20;23.30;55.00
66708;DHT22;53622;0.000;0.000;2023-05-07T09:17:50;23.30;55.00
66708;DHT22;53622;0.000;0.000;2023-05-07T09:20:19;23.30;55.00
66708;DHT22;53622;0.000;0.000;2023-05-07T09:22:50;23.30;55.00
66708;DHT22;53622;0.000;0.000;2023-05-07T09:25:28;23.30;55.00
66708;DHT22;53622;0.000;0.000;2023-05-07T09:28:00;23.30;55.10
66708;DHT22;53622;0.000;0.000;2023-05-07T09:30:30;23.30;55.10
66708;DHT22;53622;0.000;0.000;2023-05-07T09:33:02;23.30;55.10
66708;DHT22;53622;0.000;0.000;2023-05-07T09:35:35;23.30;55.10
66708;DHT22;53622;0.000;0.000;2023-05-07T09:38:12;23.30;55.10
66708;DHT22;53622;0.000;0.000;2023-05-07T09:40:42;23.30;55.20
66708;DHT22;53622;0.000;0.000;2023-05-07T09:43:14;23.30;55.20
66708;DHT22;53622;0.000;0.000;2023-05-07T09:45:57;23.30;55.20
66708;DHT22;53622;0.000;0.000;2023-05-07T09:48:27;23.30;55.20
66708;DHT22;53622;0.000;0.000;2023-05-07T09:51:00;23.30;55.20
66708;DHT22;53622;0.000;0.000;2023-05-07T09:53:35;23.30;55.20
66708;DHT22;53622;0.000;0.000;2023-05-07T09:56:06;23.30;55.30
66708;DHT22;53622;0.000;0.000;2023-05-07T09:58:37;23.30;55.10
66708;DHT22;53622;0.000;0.000;2023-05-07T10:01:08;23.30;55.40
66708;DHT22;53622;0.000;0.000;2023-05-07T10:03:41;23.30;55.20
66708;DHT22;53622;0.000;0.000;2023-05-07T10:06:12;23.30;55.30
66708;DHT22;53622;0.000;0.000;2023-05-07T10:08:44;23.30;55.30
66708;DHT22;53622;0.000;0.000;2023-05-07T10:11:14;23.30;55.20
66708;DHT22;53622;0.000;0.000;2023-05-07T10:13:46;23.30;55.30
66708;DHT22;53622;0.000;0.000;2023-05-07T10:16:17;23.30;55.20
66708;DHT22;53622;0.000;0.000;2023-05-07T10:18:49;23.30;55.30
66708;DHT22;53622;0.000;0.000;2023-05-07T10:21:23;23.30;55.30
66708;DHT22;53622;0.000;0.000;2023-05-07T10:24:03;23.20;55.30
66708;DHT22;53622;0.000;0.000;2023-05-07T10:26:35;23.30;55.30
66708;DHT22;53622;0.000;0.000;2023-05-07T10:29:14;23.20;55.30
66708;DHT22;53622;0.000;0.000;2023-05-07T10:31:58;23.30;55.20
66708;DHT22;53622;0.000;0.000;2023-05-07T10:34:34;23.30;55.40
66708;DHT22;53622;0.000;0.000;2023-05-07T10:37:05;23.20;55.30
66708;DHT22;53622;0.000;0.000;2023-05-07T10:39:37;23.20;55.30
66708;DHT22;53622;0.000;0.000;2023-05-07T10:42:11;23.20;55.30
66708;DHT22;53622;0.000;0.000;2023-05-07T10:44:45;23.20;55.30
66708;DHT22;53622;0.000;0.000;2023-05-07T10:47:22;23.20;55.30
66708;DHT22;53622;0.000;0.000;2023-05-07T10:50:20;23.20;55.30
66708;DHT22;53622;0.000;0.000;2023-05-07T10:56:26;23.20;55.30
66708;DHT22;53622;0.000;0.000;2023-05-07T10:59:30;23.20;55.40
66708;DHT22;53622;0.000;0.000;2023-05-07T11:02:14;23.20;55.40
66708;DHT22;53622;0.000;0.000;2023-05-07T11:05:18;23.20;55.50
66708;DHT22;53622;0.000;0.000;2023-05-07T11:07:54;23.20;55.40
66708;DHT22;53622;0.000;0.000;2023-05-07T11:10:49;23.20;55.50
66708;DHT22;53622;0.000;0.000;2023-05-07T11:13:44;23.20;55.50
66708;DHT22;53622;0.000;0.000;2023-05-07T11:16:37;23.20;55.60
66708;DHT22;53622;0.000;0.000;2023-05-07T11:19:49;23.20;55.50
66708;DHT22;53622;0.000;0.000;2023-05-07T11:22:37;23.20;55.60
66708;DHT22;53622;0.000;0.000;2023-05-07T11:25:18;23.20;55.60
66708;DHT22;53622;0.000;0.000;2023-05-07T11:27:54;23.20;55.60
66708;DHT22;53622;0.000;0.000;2023-05-07T11:30:28;23.20;55.60
66708;DHT22;53622;0.000;0.000;2023-05-07T11:32:58;23.20;55.50
66708;DHT22;53622;0.000;0.000;2023-05-07T11:35:28;23.20;55.50
66708;DHT22;53622;0.000;0.000;2023-05-07T11:37:59;23.20;55.60
66708;DHT22;53622;0.000;0.000;2023-05-07T11:40:32;23.20;55.50
66708;DHT22;53622;0.000;0.000;2023-05-07T11:43:10;23.20;55.60
66708;DHT22;53622;0.000;0.000;2023-05-07T11:45:41;23.20;55.60
66708;DHT22;53622;0.000;0.000;2023-05-07T11:48:10;23.20;55.60
66708;DHT22;53622;0.000;0.000;2023-05-07T11:50:50;23.20;55.60
66708;DHT22;53622;0.000;0.000;2023-05-07T11:53:22;23.20;55.60
66708;DHT22;53622;0.000;0.000;2023-05-07T11:55:53;23.20;55.60
66708;DHT22;53622;0.000;0.000;2023-05-07T11:58:24;23.20;55.60
66708;DHT22;53622;0.000;0.000;2023-05-07T12:00:54;23.20;55.70
66708;DHT22;53622;0.000;0.000;2023-05-07T12:03:24;23.20;55.60
66708;DHT22;53622;0.000;0.000;2023-05-07T12:05:56;23.20;55.70
66708;DHT22;53622;0.000;0.000;2023-05-07T12:08:25;23.20;55.70
66708;DHT22;53622;0.000;0.000;2023-05-07T12:10:55;23.20;55.70
66708;DHT22;53622;0.000;0.000;2023-05-07T12:13:25;23.20;55.70
66708;DHT22;53622;0.000;0.000;2023-05-07T12:15:56;23.20;55.70
66708;DHT22;53622;0.000;0.000;2023-05-07T12:18:25;23.20;55.70
66708;DHT22;53622;0.000;0.000;2023-05-07T12:20:55;23.20;55.70
66708;DHT22;53622;0.000;0.000;2023-05-07T12:23:25;23.20;55.70
66708;DHT22;53622;0.000;0.000;2023-05-07T12:25:54;23.20;55.70
66708;DHT22;53622;0.000;0.000;2023-05-07T12:28:24;23.20;55.70
66708;DHT22;53622;0.000;0.000;2023-05-07T12:30:53;23.20;55.70
66708;DHT22;53622;0.000;0.000;2023-05-07T12:33:26;23.20;55.70
66708;DHT22;53622;0.000;0.000;2023-05-07T12:35:56;23.20;55.70
66708;DHT22;53622;0.000;0.000;2023-05-07T12:38:25;23.20;55.70
66708;DHT22;53622;0.000;0.000;2023-05-07T12:40:54;23.20;55.70
66708;DHT22;53622;0.000;0.000;2023-05-07T12:43:26;23.20;55.60
66708;DHT22;53622;0.000;0.000;2023-05-07T12:45:57;23.20;55.60
66708;DHT22;53622;0.000;0.000;2023-05-07T12:48:30;23.20;55.70
66708;DHT22;53622;0.000;0.000;2023-05-07T12:51:00;23.20;55.70
66708;DHT22;53622;0.000;0.000;2023-05-07T12:53:30;23.20;55.70
66708;DHT22;53622;0.000;0.000;2023-05-07T12:56:00;23.20;55.70
66708;DHT22;53622;0.000;0.000;2023-05-07T12:58:30;23.20;55.70
66708;DHT22;53622;0.000;0.000;2023-05-07T13:01:06;23.20;55.80
66708;DHT22;53622;0.000;0.000;2023-05-07T13:03:39;23.20;55.80
66708;DHT22;53622;0.000;0.000;2023-05-07T13:06:09;23.20;55.80
66708;DHT22;53622;0.000;0.000;2023-05-07T13:08:41;23.20;55.90
66708;DHT22;53622;0.000;0.000;2023-05-07T13:11:12;23.20;55.90
66708;DHT22;53622;0.000;0.000;2023-05-07T13:13:41;23.20;56.40
66708;DHT22;53622;0.000;0.000;2023-05-07T13:16:11;23.20;55.90
66708;DHT22;53622;0.000;0.000;2023-05-07T13:18:42;23.20;55.90
66708;DHT22;53622;0.000;0.000;2023-05-07T13:21:13;23.20;55.90
66708;DHT22;53622;0.000;0.000;2023-05-07T13:23:42;23.20;55.90
66708;DHT22;53622;0.000;0.000;2023-05-07T13:26:11;23.20;55.90
66708;DHT22;53622;0.000;0.000;2023-05-07T13:28:53;23.20;55.90
66708;DHT22;53622;0.000;0.000;2023-05-07T13:31:23;23.10;55.90
66708;DHT22;53622;0.000;0.000;2023-05-07T13:33:53;23.20;55.90
66708;DHT22;53622;0.000;0.000;2023-05-07T13:36:24;23.20;56.00
66708;DHT22;53622;0.000;0.000;2023-05-07T13:38:53;23.20;55.90
66708;DHT22;53622;0.000;0.000;2023-05-07T13:41:22;23.20;56.00
66708;DHT22;53622;0.000;0.000;2023-05-07T13:43:51;23.20;55.90
66708;DHT22;53622;0.000;0.000;2023-05-07T13:46:21;23.20;56.00
66708;DHT22;53622;0.000;0.000;2023-05-07T13:48:51;23.20;55.90
66708;DHT22;53622;0.000;0.000;2023-05-07T13:51:21;23.20;56.00
66708;DHT22;53622;0.000;0.000;2023-05-07T13:53:51;23.20;56.00
66708;DHT22;53622;0.000;0.000;2023-05-07T13:56:20;23.20;56.00
66708;DHT22;53622;0.000;0.000;2023-05-07T13:58:49;23.20;56.00
66708;DHT22;53622;0.000;0.000;2023-05-07T14:01:27;23.20;56.00
66708;DHT22;53622;0.000;0.000;2023-05-07T14:03:56;23.10;55.90
66708;DHT22;53622;0.000;0.000;2023-05-07T14:06:28;23.20;56.00
66708;DHT22;53622;0.000;0.000;2023-05-07T14:08:58;23.10;55.90
66708;DHT22;53622;0.000;0.000;2023-05-07T14:11:28;23.10;55.90
66708;DHT22;53622;0.000;0.000;2023-05-07T14:13:58;23.10;56.00
66708;DHT22;53622;0.000;0.000;2023-05-07T14:16:28;23.10;56.10
66708;DHT22;53622;0.000;0.000;2023-05-07T14:18:57;23.10;56.00
66708;DHT22;53622;0.000;0.000;2023-05-07T14:21:28;23.10;56.00
66708;DHT22;53622;0.000;0.000;2023-05-07T14:24:00;23.10;56.00
66708;DHT22;53622;0.000;0.000;2023-05-07T14:26:29;23.10;56.10
66708;DHT22;53622;0.000;0.000;2023-05-07T14:28:59;23.10;56.20
66708;DHT22;53622;0.000;0.000;2023-05-07T14:31:28;23.20;56.20
66708;DHT22;53622;0.000;0.000;2023-05-07T14:33:58;23.20;56.20
66708;DHT22;53622;0.000;0.000;2023-05-07T14:36:29;23.30;56.40
66708;DHT22;53622;0.000;0.000;2023-05-07T14:38:59;23.20;56.50
66708;DHT22;53622;0.000;0.000;2023-05-07T14:41:29;23.20;56.80
66708;DHT22;53622;0.000;0.000;2023-05-07T14:43:59;23.20;56.70
66708;DHT22;53622;0.000;0.000;2023-05-07T14:46:29;23.20;56.70
66708;DHT22;53622;0.000;0.000;2023-05-07T14:48:59;23.30;56.70
66708;DHT22;53622;0.000;0.000;2023-05-07T14:51:30;23.30;56.70
66708;DHT22;53622;0.000;0.000;2023-05-07T14:54:00;23.30;56.70
66708;DHT22;53622;0.000;0.000;2023-05-07T14:56:31;23.30;56.80
66708;DHT22;53622;0.000;0.000;2023-05-07T14:59:00;23.30;56.90
66708;DHT22;53622;0.000;0.000;2023-05-07T15:01:30;23.30;56.90
66708;DHT22;53622;0.000;0.000;2023-05-07T15:04:00;23.30;57.10
66708;DHT22;53622;0.000;0.000;2023-05-07T15:06:31;23.30;57.00
66708;DHT22;53622;0.000;0.000;2023-05-07T15:09:01;23.30;57.00
66708;DHT22;53622;0.000;0.000;2023-05-07T15:11:31;23.30;57.10
66708;DHT22;53622;0.000;0.000;2023-05-07T15:14:00;23.30;57.20
66708;DHT22;53622;0.000;0.000;2023-05-07T15:16:30;23.30;57.10
66708;DHT22;53622;0.000;0.000;2023-05-07T15:19:00;23.40;56.90
66708;DHT22;53622;0.000;0.000;2023-05-07T15:21:31;23.40;56.90
66708;DHT22;53622;0.000;0.000;2023-05-07T15:24:02;23.40;57.00
66708;DHT22;53622;0.000;0.000;2023-05-07T15:26:32;23.40;56.90
66708;DHT22;53622;0.000;0.000;2023-05-07T15:29:01;23.40;56.90
66708;DHT22;53622;0.000;0.000;2023-05-07T15:31:36;23.40;57.00
66708;DHT22;53622;0.000;0.000;2023-05-07T15:34:07;23.40;56.90
66708;DHT22;53622;0.000;0.000;2023-05-07T15:36:37;23.40;56.80
66708;DHT22;53622;0.000;0.000;2023-05-07T15:39:06;23.40;56.80
66708;DHT22;53622;0.000;0.000;2023-05-07T15:41:36;23.40;56.90
66708;DHT22;53622;0.000;0.000;2023-05-07T15:44:06;23.40;56.80
66708;DHT22;53622;0.000;0.000;2023-05-07T15:46:36;23.40;56.80
66708;DHT22;53622;0.000;0.000;2023-05-07T15:49:05;23.40;56.80
66708;DHT22;53622;0.000;0.000;2023-05-07T15:51:37;23.40;56.80
66708;DHT22;53622;0.000;0.000;2023-05-07T15:54:06;23.40;56.80
66708;DHT22;53622;0.000;0.000;2023-05-07T15:56:36;23.40;56.80
66708;DHT22;53622;0.000;0.000;2023-05-07T15:59:05;23.40;56.80
66708;DHT22;53622;0.000;0.000;2023-05-07T16:01:35;23.40;56.80
66708;DHT22;53622;0.000;0.000;2023-05-07T16:04:05;23.40;56.80
66708;DHT22;53622;0.000;0.000;2023-05-07T16:06:37;23.40;56.80
66708;DHT22;53622;0.000;0.000;2023-05-07T16:09:06;23.40;56.80
66708;DHT22;53622;0.000;0.000;2023-05-07T16:11:37;23.40;56.80
66708;DHT22;53622;0.000;0.000;2023-05-07T16:14:07;23.40;56.80